sensor_id;sensor_type;location;lat;lon;timestamp;pressure;altitude;pressure_sealevel;temperature
29423;BMP180;16399;51.686;8.684;2023-02-28T00:01:27;101346.00;;;0.30
29423;BMP180;16399;51.686;8.684;2023-02-28T00:04:29;101344.00;;;0.30
29423;BMP180;16399;51.686;8.684;2023-02-28T00:07:32;101346.00;;;0.30
29423;BMP180;16399;51.686;8.684;2023-02-28T00:10:34;101339.00;;;0.30
29423;BMP180;16399;51.686;8.684;2023-02-28T00:13:40;101342.00;;;0.30
29423;BMP180;16399;51.686;8.684;2023-02-28T00:16:43;101342.00;;;0.30
29423;BMP180;16399;51.686;8.684;2023-02-28T00:19:45;101337.00;;;0.20
29423;BMP180;16399;51.686;8.684;2023-02-28T00:22:50;101332.00;;;0.20
29423;BMP180;16399;51.686;8.684;2023-02-28T00:26:12;101340.00;;;0.20
29423;BMP180;16399;51.686;8.684;2023-02-28T00:29:15;101337.00;;;0.20
29423;BMP180;16399;51.686;8.684;2023-02-28T00:32:17;101333.00;;;0.20
29423;BMP180;16399;51.686;8.684;2023-02-28T00:35:20;101330.00;;;0.10
29423;BMP180;16399;51.686;8.684;2023-02-28T00:38:22;101336.00;;;0.10
29423;BMP180;16399;51.686;8.684;2023-02-28T00:41:24;101339.00;;;0.10
29423;BMP180;16399;51.686;8.684;2023-02-28T00:44:26;101326.00;;;0.00
29423;BMP180;16399;51.686;8.684;2023-02-28T00:47:29;101329.00;;;0.00
29423;BMP180;16399;51.686;8.684;2023-02-28T00:50:31;101323.00;;;0.00
29423;BMP180;16399;51.686;8.684;2023-02-28T00:53:33;101322.00;;;-0.10
29423;BMP180;16399;51.686;8.684;2023-02-28T00:56:36;101340.00;;;-0.20
29423;BMP180;16399;51.686;8.684;2023-02-28T00:59:39;101332.00;;;-0.20
29423;BMP180;16399;51.686;8.684;2023-02-28T01:02:42;101337.00;;;-0.30
29423;BMP180;16399;51.686;8.684;2023-02-28T01:05:44;101333.00;;;-0.30
29423;BMP180;16399;51.686;8.684;2023-02-28T01:08:47;101339.00;;;-0.40
29423;BMP180;16399;51.686;8.684;2023-02-28T01:11:49;101344.00;;;-0.50
29423;BMP180;16399;51.686;8.684;2023-02-28T01:14:51;101335.00;;;-0.50
29423;BMP180;16399;51.686;8.684;2023-02-28T01:17:54;101345.00;;;-0.60
29423;BMP180;16399;51.686;8.684;2023-02-28T01:20:56;101338.00;;;-0.60
29423;BMP180;16399;51.686;8.684;2023-02-28T01:23:58;101331.00;;;-0.70
29423;BMP180;16399;51.686;8.684;2023-02-28T01:27:01;101338.00;;;-0.80
29423;BMP180;16399;51.686;8.684;2023-02-28T01:30:03;101336.00;;;-0.80
29423;BMP180;16399;51.686;8.684;2023-02-28T01:33:06;101342.00;;;-0.90
29423;BMP180;16399;51.686;8.684;2023-02-28T01:36:13;101343.00;;;-0.90
29423;BMP180;16399;51.686;8.684;2023-02-28T01:39:16;101339.00;;;-1.00
29423;BMP180;16399;51.686;8.684;2023-02-28T01:42:19;101336.00;;;-1.00
29423;BMP180;16399;51.686;8.684;2023-02-28T01:45:29;101332.00;;;-1.00
29423;BMP180;16399;51.686;8.684;2023-02-28T01:48:35;101340.00;;;-1.00
29423;BMP180;16399;51.686;8.684;2023-02-28T01:51:44;101346.00;;;-1.10
29423;BMP180;16399;51.686;8.684;2023-02-28T01:54:54;101337.00;;;-1.10
29423;BMP180;16399;51.686;8.684;2023-02-28T01:57:59;101340.00;;;-1.20
29423;BMP180;16399;51.686;8.684;2023-02-28T02:01:03;101339.00;;;-1.20
29423;BMP180;16399;51.686;8.684;2023-02-28T02:04:05;101326.00;;;-1.20
29423;BMP180;16399;51.686;8.684;2023-02-28T02:07:08;101339.00;;;-1.30
29423;BMP180;16399;51.686;8.684;2023-02-28T02:10:24;101337.00;;;-1.30
29423;BMP180;16399;51.686;8.684;2023-02-28T02:23:33;101330.00;;;-1.20
29423;BMP180;16399;51.686;8.684;2023-02-28T02:26:52;101319.00;;;-1.20
29423;BMP180;16399;51.686;8.684;2023-02-28T02:30:21;101328.00;;;-1.10
29423;BMP180;16399;51.686;8.684;2023-02-28T02:37:27;101318.00;;;-1.00
29423;BMP180;16399;51.686;8.684;2023-02-28T02:40:46;101320.00;;;-0.90
29423;BMP180;16399;51.686;8.684;2023-02-28T02:43:52;101315.00;;;-0.90
29423;BMP180;16399;51.686;8.684;2023-02-28T02:47:02;101323.00;;;-0.90
29423;BMP180;16399;51.686;8.684;2023-02-28T02:50:05;101322.00;;;-0.90
29423;BMP180;16399;51.686;8.684;2023-02-28T02:53:09;101326.00;;;-0.80
29423;BMP180;16399;51.686;8.684;2023-02-28T02:56:13;101314.00;;;-0.80
29423;BMP180;16399;51.686;8.684;2023-02-28T02:59:20;101308.00;;;-0.80
29423;BMP180;16399;51.686;8.684;2023-02-28T03:02:23;101320.00;;;-0.80
29423;BMP180;16399;51.686;8.684;2023-02-28T03:05:28;101316.00;;;-0.80
29423;BMP180;16399;51.686;8.684;2023-02-28T03:08:35;101321.00;;;-0.80
29423;BMP180;16399;51.686;8.684;2023-02-28T03:11:38;101317.00;;;-0.80
29423;BMP180;16399;51.686;8.684;2023-02-28T03:15:10;101323.00;;;-0.90
29423;BMP180;16399;51.686;8.684;2023-02-28T03:18:27;101321.00;;;-0.90
29423;BMP180;16399;51.686;8.684;2023-02-28T03:28:40;101315.00;;;-1.10
29423;BMP180;16399;51.686;8.684;2023-02-28T03:31:32;101325.00;;;-1.10
29423;BMP180;16399;51.686;8.684;2023-02-28T03:34:41;101328.00;;;-1.10
29423;BMP180;16399;51.686;8.684;2023-02-28T03:37:41;101329.00;;;-1.20
29423;BMP180;16399;51.686;8.684;2023-02-28T03:41:06;101325.00;;;-1.30
29423;BMP180;16399;51.686;8.684;2023-02-28T03:44:14;101327.00;;;-1.30
29423;BMP180;16399;51.686;8.684;2023-02-28T03:47:29;101314.00;;;-1.30
29423;BMP180;16399;51.686;8.684;2023-02-28T03:50:38;101329.00;;;-1.40
29423;BMP180;16399;51.686;8.684;2023-02-28T03:53:56;101333.00;;;-1.50
29423;BMP180;16399;51.686;8.684;2023-02-28T03:57:05;101345.00;;;-1.50
29423;BMP180;16399;51.686;8.684;2023-02-28T04:00:12;101337.00;;;-1.50
29423;BMP180;16399;51.686;8.684;2023-02-28T04:03:15;101336.00;;;-1.60
29423;BMP180;16399;51.686;8.684;2023-02-28T04:06:19;101326.00;;;-1.70
29423;BMP180;16399;51.686;8.684;2023-02-28T04:09:26;101329.00;;;-1.70
29423;BMP180;16399;51.686;8.684;2023-02-28T04:12:30;101340.00;;;-1.80
29423;BMP180;16399;51.686;8.684;2023-02-28T04:15:32;101340.00;;;-1.80
29423;BMP180;16399;51.686;8.684;2023-02-28T04:18:34;101328.00;;;-1.90
29423;BMP180;16399;51.686;8.684;2023-02-28T04:21:39;101331.00;;;-1.90
29423;BMP180;16399;51.686;8.684;2023-02-28T04:24:42;101330.00;;;-2.00
29423;BMP180;16399;51.686;8.684;2023-02-28T04:27:44;101325.00;;;-2.00
29423;BMP180;16399;51.686;8.684;2023-02-28T04:30:46;101294.00;;;-2.10
29423;BMP180;16399;51.686;8.684;2023-02-28T04:33:49;101335.00;;;-2.10
29423;BMP180;16399;51.686;8.684;2023-02-28T04:36:51;101331.00;;;-2.10
29423;BMP180;16399;51.686;8.684;2023-02-28T04:39:55;101339.00;;;-2.10
29423;BMP180;16399;51.686;8.684;2023-02-28T04:42:57;101341.00;;;-2.10
29423;BMP180;16399;51.686;8.684;2023-02-28T04:46:02;101339.00;;;-2.10
29423;BMP180;16399;51.686;8.684;2023-02-28T04:49:05;101335.00;;;-2.10
29423;BMP180;16399;51.686;8.684;2023-02-28T04:52:07;101341.00;;;-2.10
29423;BMP180;16399;51.686;8.684;2023-02-28T04:55:11;101345.00;;;-2.10
29423;BMP180;16399;51.686;8.684;2023-02-28T04:58:14;101333.00;;;-2.10
29423;BMP180;16399;51.686;8.684;2023-02-28T05:01:25;101332.00;;;-2.00
29423;BMP180;16399;51.686;8.684;2023-02-28T05:04:27;101333.00;;;-2.00
29423;BMP180;16399;51.686;8.684;2023-02-28T05:07:29;101339.00;;;-2.00
29423;BMP180;16399;51.686;8.684;2023-02-28T05:10:32;101339.00;;;-2.00
29423;BMP180;16399;51.686;8.684;2023-02-28T05:13:34;101347.00;;;-1.90
29423;BMP180;16399;51.686;8.684;2023-02-28T05:16:37;101338.00;;;-1.80
29423;BMP180;16399;51.686;8.684;2023-02-28T05:19:39;101351.00;;;-1.70
29423;BMP180;16399;51.686;8.684;2023-02-28T05:22:42;101344.00;;;-1.70
29423;BMP180;16399;51.686;8.684;2023-02-28T05:25:45;101344.00;;;-1.60
29423;BMP180;16399;51.686;8.684;2023-02-28T05:28:47;101341.00;;;-1.50
29423;BMP180;16399;51.686;8.684;2023-02-28T05:31:50;101333.00;;;-1.40
29423;BMP180;16399;51.686;8.684;2023-02-28T05:34:52;101327.00;;;-1.40
29423;BMP180;16399;51.686;8.684;2023-02-28T05:37:54;101330.00;;;-1.30
29423;BMP180;16399;51.686;8.684;2023-02-28T05:40:56;101343.00;;;-1.30
29423;BMP180;16399;51.686;8.684;2023-02-28T05:43:59;101348.00;;;-1.30
29423;BMP180;16399;51.686;8.684;2023-02-28T05:47:01;101346.00;;;-1.20
29423;BMP180;16399;51.686;8.684;2023-02-28T05:50:05;101340.00;;;-1.20
29423;BMP180;16399;51.686;8.684;2023-02-28T05:53:07;101343.00;;;-1.20
29423;BMP180;16399;51.686;8.684;2023-02-28T05:56:10;101345.00;;;-1.20
29423;BMP180;16399;51.686;8.684;2023-02-28T05:59:12;101347.00;;;-1.20
29423;BMP180;16399;51.686;8.684;2023-02-28T06:02:16;101339.00;;;-1.30
29423;BMP180;16399;51.686;8.684;2023-02-28T06:05:19;101350.00;;;-1.30
29423;BMP180;16399;51.686;8.684;2023-02-28T06:08:21;101345.00;;;-1.40
29423;BMP180;16399;51.686;8.684;2023-02-28T06:11:23;101358.00;;;-1.50
29423;BMP180;16399;51.686;8.684;2023-02-28T06:14:29;101351.00;;;-1.60
29423;BMP180;16399;51.686;8.684;2023-02-28T06:17:32;101358.00;;;-1.60
29423;BMP180;16399;51.686;8.684;2023-02-28T06:20:34;101364.00;;;-1.70
29423;BMP180;16399;51.686;8.684;2023-02-28T06:23:37;101357.00;;;-1.80
29423;BMP180;16399;51.686;8.684;2023-02-28T06:26:39;101369.00;;;-1.80
29423;BMP180;16399;51.686;8.684;2023-02-28T06:29:41;101367.00;;;-1.80
29423;BMP180;16399;51.686;8.684;2023-02-28T06:32:44;101381.00;;;-1.80
29423;BMP180;16399;51.686;8.684;2023-02-28T06:35:52;101364.00;;;-1.80
29423;BMP180;16399;51.686;8.684;2023-02-28T06:38:55;101370.00;;;-1.80
29423;BMP180;16399;51.686;8.684;2023-02-28T06:41:57;101380.00;;;-1.80
29423;BMP180;16399;51.686;8.684;2023-02-28T06:44:59;101376.00;;;-1.70
29423;BMP180;16399;51.686;8.684;2023-02-28T06:48:03;101381.00;;;-1.70
29423;BMP180;16399;51.686;8.684;2023-02-28T06:51:15;101379.00;;;-1.70
29423;BMP180;16399;51.686;8.684;2023-02-28T06:54:14;101389.00;;;-1.70
29423;BMP180;16399;51.686;8.684;2023-02-28T06:57:16;101395.00;;;-1.70
29423;BMP180;16399;51.686;8.684;2023-02-28T07:00:19;101390.00;;;-1.70
29423;BMP180;16399;51.686;8.684;2023-02-28T07:03:21;101392.00;;;-1.60
29423;BMP180;16399;51.686;8.684;2023-02-28T07:06:24;101388.00;;;-1.50
29423;BMP180;16399;51.686;8.684;2023-02-28T07:09:27;101395.00;;;-1.50
29423;BMP180;16399;51.686;8.684;2023-02-28T07:12:32;101401.00;;;-1.40
29423;BMP180;16399;51.686;8.684;2023-02-28T07:15:35;101398.00;;;-1.30
29423;BMP180;16399;51.686;8.684;2023-02-28T07:18:38;101395.00;;;-1.20
29423;BMP180;16399;51.686;8.684;2023-02-28T07:21:40;101403.00;;;-1.10
29423;BMP180;16399;51.686;8.684;2023-02-28T07:24:43;101384.00;;;-0.90
29423;BMP180;16399;51.686;8.684;2023-02-28T07:27:45;101405.00;;;-0.80
29423;BMP180;16399;51.686;8.684;2023-02-28T07:30:47;101396.00;;;-0.70
29423;BMP180;16399;51.686;8.684;2023-02-28T07:33:50;101392.00;;;-0.50
29423;BMP180;16399;51.686;8.684;2023-02-28T07:36:55;101401.00;;;-0.40
29423;BMP180;16399;51.686;8.684;2023-02-28T07:39:57;101387.00;;;-0.30
29423;BMP180;16399;51.686;8.684;2023-02-28T07:43:03;101386.00;;;-0.30
29423;BMP180;16399;51.686;8.684;2023-02-28T07:46:08;101401.00;;;-0.20
29423;BMP180;16399;51.686;8.684;2023-02-28T07:49:11;101397.00;;;-0.20
29423;BMP180;16399;51.686;8.684;2023-02-28T07:52:13;101385.00;;;-0.20
29423;BMP180;16399;51.686;8.684;2023-02-28T07:55:16;101391.00;;;-0.20
29423;BMP180;16399;51.686;8.684;2023-02-28T07:58:19;101378.00;;;0.00
29423;BMP180;16399;51.686;8.684;2023-02-28T08:01:21;101388.00;;;0.10
29423;BMP180;16399;51.686;8.684;2023-02-28T08:04:23;101389.00;;;0.30
29423;BMP180;16399;51.686;8.684;2023-02-28T08:07:25;101376.00;;;0.60
29423;BMP180;16399;51.686;8.684;2023-02-28T08:10:28;101382.00;;;0.80
29423;BMP180;16399;51.686;8.684;2023-02-28T08:13:30;101378.00;;;0.90
29423;BMP180;16399;51.686;8.684;2023-02-28T08:16:33;101384.00;;;1.10
29423;BMP180;16399;51.686;8.684;2023-02-28T08:19:35;101375.00;;;1.30
29423;BMP180;16399;51.686;8.684;2023-02-28T08:22:38;101388.00;;;1.40
29423;BMP180;16399;51.686;8.684;2023-02-28T08:25:40;101374.00;;;1.50
29423;BMP180;16399;51.686;8.684;2023-02-28T08:28:42;101369.00;;;1.50
29423;BMP180;16399;51.686;8.684;2023-02-28T08:31:45;101380.00;;;1.70
29423;BMP180;16399;51.686;8.684;2023-02-28T08:34:47;101373.00;;;1.80
29423;BMP180;16399;51.686;8.684;2023-02-28T08:37:50;101377.00;;;2.00
29423;BMP180;16399;51.686;8.684;2023-02-28T08:41:07;101374.00;;;2.20
29423;BMP180;16399;51.686;8.684;2023-02-28T08:44:08;101374.00;;;2.20
29423;BMP180;16399;51.686;8.684;2023-02-28T08:47:10;101371.00;;;2.30
29423;BMP180;16399;51.686;8.684;2023-02-28T08:50:12;101376.00;;;2.50
29423;BMP180;16399;51.686;8.684;2023-02-28T08:53:16;101373.00;;;2.60
29423;BMP180;16399;51.686;8.684;2023-02-28T08:56:18;101369.00;;;2.90
29423;BMP180;16399;51.686;8.684;2023-02-28T08:59:21;101357.00;;;3.10
29423;BMP180;16399;51.686;8.684;2023-02-28T09:02:23;101364.00;;;3.10
29423;BMP180;16399;51.686;8.684;2023-02-28T09:05:25;101367.00;;;3.20
29423;BMP180;16399;51.686;8.684;2023-02-28T09:08:29;101355.00;;;3.30
29423;BMP180;16399;51.686;8.684;2023-02-28T09:11:32;101359.00;;;3.50
29423;BMP180;16399;51.686;8.684;2023-02-28T09:14:35;101355.00;;;3.70
29423;BMP180;16399;51.686;8.684;2023-02-28T09:17:38;101351.00;;;3.80
29423;BMP180;16399;51.686;8.684;2023-02-28T09:20:41;101349.00;;;3.90
29423;BMP180;16399;51.686;8.684;2023-02-28T09:23:45;101351.00;;;3.80
29423;BMP180;16399;51.686;8.684;2023-02-28T09:26:47;101361.00;;;3.70
29423;BMP180;16399;51.686;8.684;2023-02-28T09:29:49;101359.00;;;3.80
29423;BMP180;16399;51.686;8.684;2023-02-28T09:32:52;101367.00;;;3.70
29423;BMP180;16399;51.686;8.684;2023-02-28T09:36:00;101359.00;;;3.30
29423;BMP180;16399;51.686;8.684;2023-02-28T09:39:02;101368.00;;;3.40
29423;BMP180;16399;51.686;8.684;2023-02-28T09:42:05;101351.00;;;3.40
29423;BMP180;16399;51.686;8.684;2023-02-28T09:45:20;101355.00;;;3.40
29423;BMP180;16399;51.686;8.684;2023-02-28T09:48:21;101363.00;;;3.70
29423;BMP180;16399;51.686;8.684;2023-02-28T09:54:45;101361.00;;;4.20
29423;BMP180;16399;51.686;8.684;2023-02-28T09:57:50;101355.00;;;4.40
29423;BMP180;16399;51.686;8.684;2023-02-28T10:01:03;101366.00;;;4.40
29423;BMP180;16399;51.686;8.684;2023-02-28T10:04:13;101351.00;;;4.50
29423;BMP180;16399;51.686;8.684;2023-02-28T10:07:35;101357.00;;;4.50
29423;BMP180;16399;51.686;8.684;2023-02-28T10:10:34;101356.00;;;4.60
29423;BMP180;16399;51.686;8.684;2023-02-28T10:13:45;101357.00;;;4.80
29423;BMP180;16399;51.686;8.684;2023-02-28T10:16:52;101359.00;;;4.70
29423;BMP180;16399;51.686;8.684;2023-02-28T10:20:05;101359.00;;;4.60
29423;BMP180;16399;51.686;8.684;2023-02-28T10:23:24;101361.00;;;4.50
29423;BMP180;16399;51.686;8.684;2023-02-28T10:26:26;101355.00;;;4.40
29423;BMP180;16399;51.686;8.684;2023-02-28T10:29:32;101352.00;;;4.30
29423;BMP180;16399;51.686;8.684;2023-02-28T10:32:36;101349.00;;;4.20
29423;BMP180;16399;51.686;8.684;2023-02-28T10:35:40;101347.00;;;4.30
29423;BMP180;16399;51.686;8.684;2023-02-28T10:38:45;101340.00;;;4.50
29423;BMP180;16399;51.686;8.684;2023-02-28T10:41:48;101341.00;;;4.60
29423;BMP180;16399;51.686;8.684;2023-02-28T10:45:25;101334.00;;;4.70
29423;BMP180;16399;51.686;8.684;2023-02-28T10:48:04;101323.00;;;5.10
29423;BMP180;16399;51.686;8.684;2023-02-28T10:51:10;101334.00;;;5.30
29423;BMP180;16399;51.686;8.684;2023-02-28T10:54:18;101319.00;;;5.60
29423;BMP180;16399;51.686;8.684;2023-02-28T10:57:22;101311.00;;;6.00
29423;BMP180;16399;51.686;8.684;2023-02-28T11:00:34;101313.00;;;6.40
29423;BMP180;16399;51.686;8.684;2023-02-28T11:03:37;101309.00;;;6.70
29423;BMP180;16399;51.686;8.684;2023-02-28T11:06:39;101306.00;;;6.80
29423;BMP180;16399;51.686;8.684;2023-02-28T11:09:44;101306.00;;;6.80
29423;BMP180;16399;51.686;8.684;2023-02-28T11:12:46;101306.00;;;6.70
29423;BMP180;16399;51.686;8.684;2023-02-28T11:15:56;101310.00;;;6.80
29423;BMP180;16399;51.686;8.684;2023-02-28T11:18:59;101302.00;;;6.60
29423;BMP180;16399;51.686;8.684;2023-02-28T11:22:03;101318.00;;;6.30
29423;BMP180;16399;51.686;8.684;2023-02-28T11:25:20;101313.00;;;6.40
29423;BMP180;16399;51.686;8.684;2023-02-28T11:28:29;101312.00;;;6.00
29423;BMP180;16399;51.686;8.684;2023-02-28T11:31:28;101314.00;;;6.00
29423;BMP180;16399;51.686;8.684;2023-02-28T11:34:31;101308.00;;;5.60
29423;BMP180;16399;51.686;8.684;2023-02-28T11:37:34;101311.00;;;5.50
29423;BMP180;16399;51.686;8.684;2023-02-28T11:44:13;101300.00;;;5.30
29423;BMP180;16399;51.686;8.684;2023-02-28T11:47:20;101293.00;;;5.30
29423;BMP180;16399;51.686;8.684;2023-02-28T11:50:39;101306.00;;;5.30
29423;BMP180;16399;51.686;8.684;2023-02-28T11:57:15;101306.00;;;5.20
29423;BMP180;16399;51.686;8.684;2023-02-28T12:00:35;101294.00;;;5.20
29423;BMP180;16399;51.686;8.684;2023-02-28T12:03:56;101286.00;;;5.20
29423;BMP180;16399;51.686;8.684;2023-02-28T12:10:26;101284.00;;;5.40
29423;BMP180;16399;51.686;8.684;2023-02-28T12:13:41;101267.00;;;5.40
29423;BMP180;16399;51.686;8.684;2023-02-28T12:16:57;101270.00;;;5.60
29423;BMP180;16399;51.686;8.684;2023-02-28T12:26:45;101250.00;;;5.90
29423;BMP180;16399;51.686;8.684;2023-02-28T12:30:01;101258.00;;;6.00
29423;BMP180;16399;51.686;8.684;2023-02-28T12:33:11;101254.00;;;5.90
29423;BMP180;16399;51.686;8.684;2023-02-28T12:36:16;101260.00;;;5.60
29423;BMP180;16399;51.686;8.684;2023-02-28T12:39:46;101262.00;;;5.40
29423;BMP180;16399;51.686;8.684;2023-02-28T12:42:51;101267.00;;;5.20
29423;BMP180;16399;51.686;8.684;2023-02-28T12:46:00;101270.00;;;5.00
29423;BMP180;16399;51.686;8.684;2023-02-28T12:49:25;101253.00;;;5.20
29423;BMP180;16399;51.686;8.684;2023-02-28T12:52:28;101241.00;;;5.60
29423;BMP180;16399;51.686;8.684;2023-02-28T12:55:44;101239.00;;;5.90
29423;BMP180;16399;51.686;8.684;2023-02-28T12:58:49;101242.00;;;6.10
29423;BMP180;16399;51.686;8.684;2023-02-28T13:02:09;101245.00;;;5.90
29423;BMP180;16399;51.686;8.684;2023-02-28T13:11:50;101225.00;;;5.70
29423;BMP180;16399;51.686;8.684;2023-02-28T13:15:17;101233.00;;;5.90
29423;BMP180;16399;51.686;8.684;2023-02-28T13:18:44;101214.00;;;5.90
29423;BMP180;16399;51.686;8.684;2023-02-28T13:21:47;101223.00;;;6.00
29423;BMP180;16399;51.686;8.684;2023-02-28T13:24:57;101212.00;;;6.20
29423;BMP180;16399;51.686;8.684;2023-02-28T13:28:01;101213.00;;;6.30
29423;BMP180;16399;51.686;8.684;2023-02-28T13:31:06;101196.00;;;6.10
29423;BMP180;16399;51.686;8.684;2023-02-28T13:34:13;101191.00;;;6.20
29423;BMP180;16399;51.686;8.684;2023-02-28T13:40:31;101198.00;;;6.20
29423;BMP180;16399;51.686;8.684;2023-02-28T13:44:04;101197.00;;;6.30
29423;BMP180;16399;51.686;8.684;2023-02-28T13:57:01;101194.00;;;6.40
29423;BMP180;16399;51.686;8.684;2023-02-28T14:03:10;101193.00;;;6.20
29423;BMP180;16399;51.686;8.684;2023-02-28T14:06:29;101196.00;;;6.10
29423;BMP180;16399;51.686;8.684;2023-02-28T14:09:38;101195.00;;;6.10
29423;BMP180;16399;51.686;8.684;2023-02-28T14:12:58;101194.00;;;6.10
29423;BMP180;16399;51.686;8.684;2023-02-28T14:16:06;101182.00;;;6.30
29423;BMP180;16399;51.686;8.684;2023-02-28T14:19:28;101181.00;;;6.40
29423;BMP180;16399;51.686;8.684;2023-02-28T14:26:18;101187.00;;;6.30
29423;BMP180;16399;51.686;8.684;2023-02-28T14:33:35;101187.00;;;6.20
29423;BMP180;16399;51.686;8.684;2023-02-28T14:36:41;101188.00;;;6.10
29423;BMP180;16399;51.686;8.684;2023-02-28T14:39:43;101169.00;;;6.10
29423;BMP180;16399;51.686;8.684;2023-02-28T14:42:56;101175.00;;;6.10
29423;BMP180;16399;51.686;8.684;2023-02-28T14:46:01;101175.00;;;6.20
29423;BMP180;16399;51.686;8.684;2023-02-28T14:49:06;101183.00;;;6.10
29423;BMP180;16399;51.686;8.684;2023-02-28T14:52:23;101171.00;;;6.20
29423;BMP180;16399;51.686;8.684;2023-02-28T14:55:34;101171.00;;;6.20
29423;BMP180;16399;51.686;8.684;2023-02-28T14:58:36;101179.00;;;6.20
29423;BMP180;16399;51.686;8.684;2023-02-28T15:01:38;101176.00;;;6.30
29423;BMP180;16399;51.686;8.684;2023-02-28T15:04:41;101170.00;;;6.20
29423;BMP180;16399;51.686;8.684;2023-02-28T15:07:49;101172.00;;;6.10
29423;BMP180;16399;51.686;8.684;2023-02-28T15:10:56;101173.00;;;6.10
29423;BMP180;16399;51.686;8.684;2023-02-28T15:14:00;101171.00;;;6.10
29423;BMP180;16399;51.686;8.684;2023-02-28T15:17:09;101179.00;;;6.10
29423;BMP180;16399;51.686;8.684;2023-02-28T15:20:13;101178.00;;;6.00
29423;BMP180;16399;51.686;8.684;2023-02-28T15:23:18;101185.00;;;6.00
29423;BMP180;16399;51.686;8.684;2023-02-28T15:26:23;101184.00;;;6.00
29423;BMP180;16399;51.686;8.684;2023-02-28T15:29:28;101185.00;;;5.90
29423;BMP180;16399;51.686;8.684;2023-02-28T15:32:32;101184.00;;;5.80
29423;BMP180;16399;51.686;8.684;2023-02-28T15:35:35;101191.00;;;5.60
29423;BMP180;16399;51.686;8.684;2023-02-28T15:38:37;101194.00;;;5.70
29423;BMP180;16399;51.686;8.684;2023-02-28T15:41:39;101190.00;;;5.70
29423;BMP180;16399;51.686;8.684;2023-02-28T15:44:42;101186.00;;;5.60
29423;BMP180;16399;51.686;8.684;2023-02-28T15:47:46;101197.00;;;5.60
29423;BMP180;16399;51.686;8.684;2023-02-28T15:50:54;101188.00;;;5.50
29423;BMP180;16399;51.686;8.684;2023-02-28T15:54:07;101188.00;;;5.50
29423;BMP180;16399;51.686;8.684;2023-02-28T15:57:13;101186.00;;;5.50
29423;BMP180;16399;51.686;8.684;2023-02-28T16:00:21;101193.00;;;5.50
29423;BMP180;16399;51.686;8.684;2023-02-28T16:03:45;101195.00;;;5.40
29423;BMP180;16399;51.686;8.684;2023-02-28T16:06:38;101196.00;;;5.30
29423;BMP180;16399;51.686;8.684;2023-02-28T16:09:42;101199.00;;;5.30
29423;BMP180;16399;51.686;8.684;2023-02-28T16:12:45;101207.00;;;5.30
29423;BMP180;16399;51.686;8.684;2023-02-28T16:15:47;101203.00;;;5.40
29423;BMP180;16399;51.686;8.684;2023-02-28T16:18:51;101204.00;;;5.20
29423;BMP180;16399;51.686;8.684;2023-02-28T16:21:54;101204.00;;;5.20
29423;BMP180;16399;51.686;8.684;2023-02-28T16:24:56;101204.00;;;5.10
29423;BMP180;16399;51.686;8.684;2023-02-28T16:27:58;101207.00;;;4.90
29423;BMP180;16399;51.686;8.684;2023-02-28T16:31:02;101214.00;;;4.90
29423;BMP180;16399;51.686;8.684;2023-02-28T16:34:06;101213.00;;;4.80
29423;BMP180;16399;51.686;8.684;2023-02-28T16:37:17;101212.00;;;4.70
29423;BMP180;16399;51.686;8.684;2023-02-28T16:40:24;101218.00;;;4.60
29423;BMP180;16399;51.686;8.684;2023-02-28T16:43:29;101230.00;;;4.50
29423;BMP180;16399;51.686;8.684;2023-02-28T16:46:33;101233.00;;;4.40
29423;BMP180;16399;51.686;8.684;2023-02-28T16:49:36;101229.00;;;4.30
29423;BMP180;16399;51.686;8.684;2023-02-28T16:52:38;101224.00;;;4.30
29423;BMP180;16399;51.686;8.684;2023-02-28T16:55:40;101224.00;;;4.20
29423;BMP180;16399;51.686;8.684;2023-02-28T16:58:43;101222.00;;;4.10
29423;BMP180;16399;51.686;8.684;2023-02-28T17:01:45;101227.00;;;4.10
29423;BMP180;16399;51.686;8.684;2023-02-28T17:04:48;101225.00;;;4.00
29423;BMP180;16399;51.686;8.684;2023-02-28T17:07:50;101224.00;;;4.00
29423;BMP180;16399;51.686;8.684;2023-02-28T17:10:52;101232.00;;;3.90
29423;BMP180;16399;51.686;8.684;2023-02-28T17:13:54;101234.00;;;3.80
29423;BMP180;16399;51.686;8.684;2023-02-28T17:16:57;101238.00;;;3.70
29423;BMP180;16399;51.686;8.684;2023-02-28T17:19:59;101233.00;;;3.70
29423;BMP180;16399;51.686;8.684;2023-02-28T17:23:01;101232.00;;;3.60
29423;BMP180;16399;51.686;8.684;2023-02-28T17:26:04;101238.00;;;3.60
29423;BMP180;16399;51.686;8.684;2023-02-28T17:29:16;101241.00;;;3.50
29423;BMP180;16399;51.686;8.684;2023-02-28T17:32:19;101238.00;;;3.40
29423;BMP180;16399;51.686;8.684;2023-02-28T17:35:21;101245.00;;;3.40
29423;BMP180;16399;51.686;8.684;2023-02-28T17:38:24;101256.00;;;3.30
29423;BMP180;16399;51.686;8.684;2023-02-28T17:41:26;101253.00;;;3.20
29423;BMP180;16399;51.686;8.684;2023-02-28T17:44:30;101252.00;;;3.20
29423;BMP180;16399;51.686;8.684;2023-02-28T17:47:32;101255.00;;;3.10
29423;BMP180;16399;51.686;8.684;2023-02-28T17:50:35;101263.00;;;3.10
29423;BMP180;16399;51.686;8.684;2023-02-28T17:53:37;101253.00;;;3.00
29423;BMP180;16399;51.686;8.684;2023-02-28T17:56:40;101270.00;;;2.90
29423;BMP180;16399;51.686;8.684;2023-02-28T17:59:44;101272.00;;;2.90
29423;BMP180;16399;51.686;8.684;2023-02-28T18:02:46;101271.00;;;2.80
29423;BMP180;16399;51.686;8.684;2023-02-28T18:05:48;101266.00;;;2.80
29423;BMP180;16399;51.686;8.684;2023-02-28T18:08:51;101285.00;;;2.70
29423;BMP180;16399;51.686;8.684;2023-02-28T18:11:55;101293.00;;;2.70
29423;BMP180;16399;51.686;8.684;2023-02-28T18:14:58;101299.00;;;2.60
29423;BMP180;16399;51.686;8.684;2023-02-28T18:18:00;101282.00;;;2.50
29423;BMP180;16399;51.686;8.684;2023-02-28T18:21:05;101291.00;;;2.50
29423;BMP180;16399;51.686;8.684;2023-02-28T18:24:08;101295.00;;;2.50
29423;BMP180;16399;51.686;8.684;2023-02-28T18:27:10;101289.00;;;2.40
29423;BMP180;16399;51.686;8.684;2023-02-28T18:30:12;101291.00;;;2.40
29423;BMP180;16399;51.686;8.684;2023-02-28T18:33:15;101294.00;;;2.30
29423;BMP180;16399;51.686;8.684;2023-02-28T18:36:18;101303.00;;;2.30
29423;BMP180;16399;51.686;8.684;2023-02-28T18:39:21;101291.00;;;2.20
29423;BMP180;16399;51.686;8.684;2023-02-28T18:42:23;101293.00;;;2.20
29423;BMP180;16399;51.686;8.684;2023-02-28T18:45:26;101287.00;;;2.10
29423;BMP180;16399;51.686;8.684;2023-02-28T18:48:28;101293.00;;;2.00
29423;BMP180;16399;51.686;8.684;2023-02-28T18:51:31;101290.00;;;1.90
29423;BMP180;16399;51.686;8.684;2023-02-28T18:54:34;101288.00;;;1.90